createdAt,value
2018-11-02T00:00:11.114Z,11.11
2018-11-02T00:01:11.118Z,11.20
2018-11-02T00:02:11.001Z,11.24
2018-11-02T00:03:11.139Z,11.14
2018-11-02T00:04:10.950Z,11.13
2018-11-02T00:05:10.921Z,11.07
2018-11-02T00:06:10.952Z,11.13
2018-11-02T00:07:10.961Z,11.19
2018-11-02T00:08:10.854Z,11.11
2018-11-02T00:09:10.968Z,11.10
2018-11-02T00:10:10.980Z,11.19
2018-11-02T00:11:10.774Z,11.11
2018-11-02T00:12:10.920Z,11.16
2018-11-02T00:13:10.717Z,11.16
2018-11-02T00:14:10.801Z,11.13
2018-11-02T00:15:10.671Z,11.17
2018-11-02T00:16:10.637Z,11.25
2018-11-02T00:17:10.725Z,11.20
2018-11-02T00:18:10.589Z,11.19
2018-11-02T00:19:10.745Z,11.19
2018-11-02T00:20:10.547Z,11.25
2018-11-02T00:21:10.511Z,11.25
2018-11-02T00:22:10.492Z,11.20
2018-11-02T00:23:10.565Z,11.27
2018-11-02T00:24:10.441Z,11.25
2018-11-02T00:25:10.588Z,11.27
2018-11-02T00:26:10.585Z,11.29
2018-11-02T00:27:10.365Z,11.19
2018-11-02T00:28:10.512Z,11.29
2018-11-02T00:29:10.317Z,11.17
2018-11-02T00:30:10.418Z,11.34
2018-11-02T00:31:10.268Z,11.36
2018-11-02T00:32:10.231Z,11.27
2018-11-02T00:33:10.338Z,11.31
2018-11-02T00:34:10.187Z,11.34
2018-11-02T00:35:10.346Z,11.29
2018-11-02T00:36:10.128Z,11.31
2018-11-02T00:37:10.107Z,11.27
2018-11-02T00:38:10.081Z,11.32
2018-11-02T00:39:10.277Z,11.31
2018-11-02T00:40:10.032Z,11.34
2018-11-02T00:41:10.185Z,11.29
2018-11-02T00:42:09.982Z,11.31
2018-11-02T00:43:10.092Z,11.38
2018-11-02T00:44:10.081Z,11.32
2018-11-02T00:45:10.107Z,11.43
2018-11-02T00:46:09.881Z,11.52
2018-11-02T00:47:10.021Z,11.39
2018-11-02T00:48:09.828Z,11.41
2018-11-02T00:49:09.931Z,11.39
2018-11-02T00:50:09.771Z,11.52
2018-11-02T00:51:09.840Z,11.47
2018-11-02T00:52:09.718Z,11.50
2018-11-02T00:53:09.705Z,11.53
2018-11-02T00:54:09.672Z,11.49
2018-11-02T00:55:10.106Z,11.50
2018-11-02T00:56:09.622Z,11.46
2018-11-02T00:57:09.681Z,11.47
2018-11-02T00:58:09.580Z,11.50
2018-11-02T00:59:09.588Z,11.47
2018-11-02T01:00:09.567Z,11.52
2018-11-02T01:01:09.603Z,11.50
2018-11-02T01:02:09.472Z,11.52
2018-11-02T01:03:09.521Z,11.52
2018-11-02T01:04:09.417Z,11.59
2018-11-02T01:05:09.426Z,11.56
2018-11-02T01:06:09.380Z,11.52
2018-11-02T01:07:09.439Z,11.53
2018-11-02T01:08:09.316Z,11.49
2018-11-02T01:09:09.298Z,11.57
2018-11-02T01:10:09.278Z,11.52
2018-11-02T01:11:09.389Z,11.53
2018-11-02T01:12:09.221Z,11.53
2018-11-02T01:13:09.281Z,11.50
2018-11-02T01:14:09.160Z,11.57
2018-11-02T01:15:09.190Z,11.61
2018-11-02T01:16:09.106Z,11.53
2018-11-02T01:17:09.209Z,11.49
2018-11-02T01:18:09.063Z,11.54
2018-11-02T01:19:09.117Z,11.57
2018-11-02T01:20:09.118Z,11.57
2018-11-02T01:21:08.996Z,11.65
2018-11-02T01:22:09.030Z,11.56
2018-11-02T01:23:08.935Z,11.62
2018-11-02T01:24:09.049Z,11.62
2018-11-02T01:25:08.948Z,11.53
2018-11-02T01:26:08.859Z,11.54
2018-11-02T01:27:08.968Z,11.59
2018-11-02T01:28:08.817Z,11.57
2018-11-02T01:29:08.879Z,11.61
2018-11-02T01:30:08.760Z,11.56
2018-11-02T01:31:08.791Z,11.54
2018-11-02T01:32:08.700Z,11.56
2018-11-02T01:33:08.813Z,11.56
2018-11-02T01:34:08.648Z,11.57
2018-11-02T01:35:08.725Z,11.57
2018-11-02T01:36:08.605Z,11.57
2018-11-02T01:37:08.728Z,11.64
2018-11-02T01:38:08.551Z,11.62
2018-11-02T01:39:08.636Z,11.61
2018-11-02T01:40:08.501Z,11.62
2018-11-02T01:41:08.473Z,11.57
2018-11-02T01:42:08.449Z,11.56
2018-11-02T01:43:08.576Z,11.61
2018-11-02T01:44:08.390Z,11.59
2018-11-02T01:45:08.482Z,11.57
2018-11-02T01:46:08.351Z,11.54
2018-11-02T01:47:08.323Z,11.61
2018-11-02T01:48:08.407Z,11.57
2018-11-02T01:49:08.267Z,11.59
2018-11-02T01:50:08.311Z,11.62
2018-11-02T01:51:08.238Z,11.56
2018-11-02T01:52:08.186Z,11.53
2018-11-02T01:53:08.167Z,11.57
2018-11-02T01:54:08.278Z,11.57
2018-11-02T01:55:08.121Z,11.53
2018-11-02T01:56:08.250Z,11.62
2018-11-02T01:57:08.161Z,11.57
2018-11-02T01:58:08.047Z,11.59
2018-11-02T01:59:08.168Z,11.59
2018-11-02T02:00:08.015Z,11.57
2018-11-02T02:01:08.077Z,11.56
2018-11-02T02:02:07.931Z,11.62
2018-11-02T02:03:07.906Z,11.57
2018-11-02T02:04:07.997Z,11.59
2018-11-02T02:05:07.857Z,11.52
2018-11-02T02:06:07.917Z,11.53
2018-11-02T02:07:07.811Z,11.64
2018-11-02T02:08:07.790Z,11.53
2018-11-02T02:09:07.938Z,11.61
2018-11-02T02:10:07.805Z,11.59
2018-11-02T02:11:07.840Z,11.47
2018-11-02T02:12:07.686Z,11.56
2018-11-02T02:13:07.697Z,11.59
2018-11-02T02:14:07.631Z,11.62
2018-11-02T02:15:07.771Z,11.49
2018-11-02T02:16:07.584Z,11.44
2018-11-02T02:17:07.681Z,11.52
2018-11-02T02:18:07.527Z,11.44
2018-11-02T02:19:07.499Z,11.47
2018-11-02T02:20:07.601Z,11.50
2018-11-02T02:21:14.809Z,11.49
2018-11-02T02:23:00.481Z,11.44
2018-11-02T02:24:00.469Z,11.38
2018-11-02T02:25:53.342Z,11.35
2018-11-02T02:26:53.243Z,11.31
2018-11-02T02:27:53.331Z,11.36
2018-11-02T02:28:53.181Z,11.31
2018-11-02T02:29:53.161Z,11.25
2018-11-02T02:30:53.257Z,11.29
2018-11-02T02:31:53.109Z,11.17
2018-11-02T02:32:53.160Z,11.27
2018-11-02T02:33:53.067Z,11.25
2018-11-02T02:34:53.030Z,11.24
2018-11-02T02:35:53.009Z,11.19
2018-11-02T02:36:53.089Z,11.17
2018-11-02T02:37:52.958Z,11.14
2018-11-02T02:38:53.000Z,11.10
2018-11-02T02:39:52.917Z,11.06
2018-11-02T02:40:53.017Z,11.03
2018-11-02T02:41:52.851Z,10.98
2018-11-02T02:42:52.918Z,11.02
2018-11-02T02:43:52.807Z,10.99
2018-11-02T02:44:52.831Z,10.95
2018-11-02T02:45:52.752Z,10.94
2018-11-02T02:46:52.863Z,10.91
2018-11-02T02:47:52.696Z,10.84
2018-11-02T02:48:52.766Z,10.89
2018-11-02T02:49:52.644Z,10.91
2018-11-02T02:50:52.626Z,10.88
2018-11-02T02:51:52.588Z,10.80
2018-11-02T02:52:52.643Z,10.86
2018-11-02T02:53:52.537Z,10.83
2018-11-02T02:54:52.550Z,10.86
2018-11-02T02:55:52.491Z,10.76
2018-11-02T02:56:52.611Z,10.80
2018-11-02T02:57:52.444Z,10.78
2018-11-02T02:58:52.517Z,10.77
2018-11-02T02:59:52.387Z,10.73
2018-11-02T03:00:52.437Z,10.71
2018-11-02T03:01:52.349Z,10.73
2018-11-02T03:02:52.455Z,10.73
2018-11-02T03:03:52.283Z,10.80
2018-11-02T03:04:52.308Z,10.74
2018-11-02T03:05:52.228Z,10.77
2018-11-02T03:06:52.209Z,10.80
2018-11-02T03:07:52.190Z,10.77
2018-11-02T03:08:52.278Z,10.78
2018-11-02T03:09:52.127Z,10.76
2018-11-02T03:10:52.298Z,10.77
2018-11-02T03:11:52.089Z,10.71
2018-11-02T03:12:52.218Z,10.71
2018-11-02T03:13:52.020Z,10.80
2018-11-02T03:14:52.129Z,10.65
2018-11-02T03:15:51.971Z,10.70
2018-11-02T03:16:52.028Z,10.74
2018-11-02T03:17:52.046Z,10.77
2018-11-02T03:18:51.988Z,10.66
2018-11-02T03:19:51.949Z,10.77
2018-11-02T03:20:51.846Z,10.76
2018-11-02T03:21:51.980Z,10.73
2018-11-02T03:22:51.788Z,10.76
2018-11-02T03:23:51.766Z,10.77
2018-11-02T03:24:51.888Z,10.70
2018-11-02T03:25:51.719Z,10.77
2018-11-02T03:26:51.807Z,10.70
2018-11-02T03:27:51.658Z,10.66
2018-11-02T03:28:51.819Z,10.73
2018-11-02T03:29:51.614Z,10.66
2018-11-02T03:30:51.732Z,10.73
2018-11-02T03:31:51.557Z,10.71
2018-11-02T03:32:51.656Z,10.70
2018-11-02T03:33:51.508Z,10.66
2018-11-02T03:34:51.482Z,10.74
2018-11-02T03:35:51.564Z,10.66
2018-11-02T03:36:51.434Z,10.73
2018-11-02T03:37:51.576Z,10.71
2018-11-02T03:38:51.477Z,10.62
2018-11-02T03:39:51.349Z,10.66
2018-11-02T03:40:51.489Z,10.70
2018-11-02T03:41:51.316Z,10.63
2018-11-02T03:42:51.401Z,10.62
2018-11-02T03:43:51.252Z,10.63
2018-11-02T03:44:51.230Z,10.58
2018-11-02T03:45:51.227Z,10.58
2018-11-02T03:46:51.177Z,10.56
2018-11-02T03:47:51.339Z,10.58
2018-11-02T03:48:51.114Z,10.56
2018-11-02T03:49:51.096Z,10.60
2018-11-02T03:50:51.058Z,10.59
2018-11-02T03:51:51.157Z,10.55
2018-11-02T03:52:51.008Z,10.59
2018-11-02T03:53:51.168Z,10.63
2018-11-02T03:54:51.078Z,10.55
2018-11-02T03:55:50.929Z,10.62
2018-11-02T03:56:51.163Z,10.60
2018-11-02T03:57:50.878Z,10.56
2018-11-02T03:58:50.997Z,10.60
2018-11-02T03:59:50.828Z,10.60
2018-11-02T04:00:50.838Z,10.59
2018-11-02T04:01:50.918Z,10.60
2018-11-02T04:02:50.756Z,10.59
2018-11-02T04:03:50.932Z,10.60
2018-11-02T04:04:50.698Z,10.59
2018-11-02T04:05:50.670Z,10.65
2018-11-02T04:06:50.639Z,10.44
2018-11-02T04:07:51.785Z,10.52
2018-11-02T04:08:50.597Z,10.46
2018-11-02T04:09:50.767Z,10.44
2018-11-02T04:10:50.539Z,10.43
2018-11-02T04:11:50.683Z,10.46
2018-11-02T04:12:50.488Z,10.40
2018-11-02T04:13:50.593Z,10.44
2018-11-02T04:14:50.437Z,10.43
2018-11-02T04:15:50.612Z,10.52
2018-11-02T04:16:50.377Z,10.53
2018-11-02T04:17:50.447Z,10.39
2018-11-02T04:18:50.334Z,10.37
2018-11-02T04:19:50.328Z,10.44
2018-11-02T04:20:50.281Z,10.46
2018-11-02T04:21:50.248Z,10.36
2018-11-02T04:22:50.237Z,10.46
2018-11-02T04:23:50.261Z,10.42
2018-11-02T04:24:50.168Z,10.40
2018-11-02T04:25:50.269Z,10.28
2018-11-02T04:26:50.124Z,10.37
2018-11-02T04:27:50.181Z,10.37
2018-11-02T04:28:50.070Z,10.33
2018-11-02T04:29:50.092Z,10.32
2018-11-02T04:30:50.096Z,10.39
2018-11-02T04:31:50.110Z,10.30
2018-11-02T04:32:49.960Z,10.33
2018-11-02T04:33:50.021Z,10.32
2018-11-02T04:34:49.925Z,10.33
2018-11-02T04:35:49.929Z,10.32
2018-11-02T04:36:49.860Z,10.34
2018-11-02T04:37:49.832Z,10.26
2018-11-02T04:38:49.857Z,10.34
2018-11-02T04:39:49.779Z,10.30
2018-11-02T04:40:49.860Z,10.26
2018-11-02T04:41:49.730Z,10.32
2018-11-02T04:42:49.779Z,10.30
2018-11-02T04:43:49.677Z,10.28
2018-11-02T04:44:49.788Z,10.24
2018-11-02T04:45:49.622Z,10.18
2018-11-02T04:46:49.704Z,10.24
2018-11-02T04:47:49.577Z,10.21
2018-11-02T04:48:49.542Z,10.24
2018-11-02T04:49:49.529Z,10.19
2018-11-02T04:50:49.687Z,10.21
2018-11-02T04:51:49.458Z,10.22
2018-11-02T04:52:49.538Z,10.22
2018-11-02T04:53:49.509Z,10.19
2018-11-02T04:54:49.392Z,10.26
2018-11-02T04:55:49.458Z,10.21
2018-11-02T04:56:49.330Z,10.22
2018-11-02T04:57:49.369Z,10.22
2018-11-02T04:58:49.288Z,10.25
2018-11-02T04:59:49.378Z,10.21
2018-11-02T05:00:49.228Z,10.21
2018-11-02T05:01:49.296Z,10.25
2018-11-02T05:02:49.182Z,10.22
2018-11-02T05:03:49.326Z,10.19
2018-11-02T05:04:49.216Z,10.18
2018-11-02T05:05:49.108Z,10.15
2018-11-02T05:06:49.235Z,10.07
2018-11-02T05:07:49.048Z,10.12
2018-11-02T05:08:49.144Z,10.19
2018-11-02T05:09:49.177Z,10.10
2018-11-02T05:10:48.969Z,10.15
2018-11-02T05:11:49.059Z,10.10
2018-11-02T05:12:48.911Z,10.07
2018-11-02T05:13:48.979Z,10.10
2018-11-02T05:14:48.869Z,10.07
2018-11-02T05:15:48.980Z,10.15
2018-11-02T05:16:48.807Z,10.14
2018-11-02T05:17:48.897Z,10.06
2018-11-02T05:18:48.758Z,10.00
2018-11-02T05:19:48.811Z,10.01
2018-11-02T05:20:48.821Z,9.97
2018-11-02T05:21:48.696Z,10.07
2018-11-02T05:22:48.732Z,10.17
2018-11-02T05:23:48.619Z,10.07
2018-11-02T05:24:48.746Z,10.03
2018-11-02T05:25:48.756Z,9.97
2018-11-02T05:26:48.549Z,10.10
2018-11-02T05:27:48.663Z,10.07
2018-11-02T05:28:48.501Z,10.09
2018-11-02T05:29:48.571Z,9.99
2018-11-02T05:30:48.451Z,10.00
2018-11-02T05:31:48.413Z,9.97
2018-11-02T05:32:48.489Z,10.04
2018-11-02T05:33:48.359Z,10.03
2018-11-02T05:34:48.499Z,10.04
2018-11-02T05:35:48.313Z,10.04
2018-11-02T05:36:48.278Z,10.06
2018-11-02T05:37:48.420Z,9.94
2018-11-02T05:38:48.237Z,9.97
2018-11-02T05:39:48.330Z,9.94
2018-11-02T05:40:48.179Z,9.99
2018-11-02T05:41:48.150Z,9.93
2018-11-02T05:42:48.129Z,10.00
2018-11-02T05:43:48.264Z,9.89
2018-11-02T05:44:48.069Z,9.86
2018-11-02T05:45:48.172Z,9.88
2018-11-02T05:46:48.022Z,9.86
2018-11-02T05:47:47.990Z,9.88
2018-11-02T05:48:48.123Z,9.86
2018-11-02T05:49:47.942Z,9.86
2018-11-02T05:50:48.105Z,9.89
2018-11-02T05:51:47.890Z,9.83
2018-11-02T05:52:47.859Z,9.89
2018-11-02T05:53:47.829Z,9.85
2018-11-02T05:54:47.932Z,9.79
2018-11-02T05:55:47.783Z,9.91
2018-11-02T05:56:47.839Z,9.79
2018-11-02T05:57:47.847Z,9.89
2018-11-02T05:58:47.698Z,9.78
2018-11-02T05:59:47.759Z,9.85
2018-11-02T06:00:47.649Z,9.78
2018-11-02T06:01:47.700Z,9.81
2018-11-02T06:02:47.610Z,9.78
2018-11-02T06:03:47.572Z,9.76
2018-11-02T06:04:47.596Z,9.68
2018-11-02T06:05:47.520Z,9.70
2018-11-02T06:06:47.607Z,9.73
2018-11-02T06:07:47.542Z,9.73
2018-11-02T06:08:47.439Z,9.71
2018-11-02T06:09:47.420Z,9.66
2018-11-02T06:10:47.427Z,9.66
2018-11-02T06:11:47.365Z,9.63
2018-11-02T06:12:47.446Z,9.67
2018-11-02T06:13:47.341Z,9.71
2018-11-02T06:14:47.282Z,9.67
2018-11-02T06:15:47.358Z,9.68
2018-11-02T06:16:47.265Z,9.67
2018-11-02T06:17:47.271Z,9.57
2018-11-02T06:18:47.181Z,9.67
2018-11-02T06:19:47.149Z,9.60
2018-11-02T06:20:47.195Z,9.67
2018-11-02T06:21:47.134Z,9.63
2018-11-02T06:22:47.107Z,9.63
2018-11-02T06:23:47.039Z,9.67
2018-11-02T06:24:47.033Z,9.61
2018-11-02T06:25:47.008Z,9.66
2018-11-02T06:26:47.029Z,9.70
2018-11-02T06:27:46.946Z,9.66
2018-11-02T06:28:46.943Z,9.66
2018-11-02T06:29:46.887Z,9.60
2018-11-02T06:30:47.032Z,9.64
2018-11-02T06:31:46.840Z,9.68
2018-11-02T06:32:47.018Z,9.60
2018-11-02T06:33:46.850Z,9.66
2018-11-02T06:34:46.778Z,9.64
2018-11-02T06:35:46.737Z,9.58
2018-11-02T06:36:46.788Z,9.58
2018-11-02T06:37:46.683Z,9.67
2018-11-02T06:38:46.847Z,9.67
2018-11-02T06:39:46.623Z,9.57
2018-11-02T06:40:46.600Z,9.66
2018-11-02T06:41:46.637Z,9.52
2018-11-02T06:42:46.547Z,9.63
2018-11-02T06:43:46.544Z,9.58
2018-11-02T06:44:46.497Z,9.57
2018-11-02T06:45:46.459Z,9.56
2018-11-02T06:46:46.437Z,9.50
2018-11-02T06:47:46.488Z,9.52
2018-11-02T06:48:46.378Z,9.56
2018-11-02T06:49:46.479Z,9.57
2018-11-02T06:50:46.368Z,9.52
2018-11-02T06:51:46.324Z,9.48
2018-11-02T06:52:46.396Z,9.61
2018-11-02T06:53:46.249Z,9.64
2018-11-02T06:54:46.300Z,9.56
2018-11-02T06:55:46.200Z,9.48
2018-11-02T06:56:46.163Z,9.52
2018-11-02T06:57:46.139Z,9.50
2018-11-02T06:58:46.228Z,9.53
2018-11-02T06:59:46.329Z,9.45
2018-11-02T07:00:46.163Z,9.45
2018-11-02T07:01:46.049Z,9.46
2018-11-02T07:02:46.058Z,9.40
2018-11-02T07:03:46.001Z,9.48
2018-11-02T07:04:46.087Z,9.45
2018-11-02T07:05:45.929Z,9.43
2018-11-02T07:06:45.975Z,9.43
2018-11-02T07:07:45.959Z,9.31
2018-11-02T07:08:45.889Z,9.49
2018-11-02T07:09:45.824Z,9.45
2018-11-02T07:10:45.903Z,9.45
2018-11-02T07:11:45.770Z,9.38
2018-11-02T07:12:45.741Z,9.46
2018-11-02T07:13:45.721Z,9.31
2018-11-02T07:14:45.723Z,9.31
2018-11-02T07:15:45.669Z,9.42
2018-11-02T07:16:45.748Z,9.34
2018-11-02T07:17:45.602Z,9.43
2018-11-02T07:18:45.649Z,9.28
2018-11-02T07:19:45.565Z,9.32
2018-11-02T07:20:45.593Z,9.35
2018-11-02T07:21:45.497Z,9.38
2018-11-02T07:22:45.578Z,9.43
2018-11-02T07:23:45.466Z,9.38
2018-11-02T07:24:45.499Z,9.40
2018-11-02T07:25:45.401Z,9.45
2018-11-02T07:26:45.399Z,9.40
2018-11-02T07:27:45.353Z,9.38
2018-11-02T07:28:45.319Z,9.49
2018-11-02T07:29:45.290Z,9.46
2018-11-02T07:30:45.320Z,9.48
2018-11-02T07:31:45.239Z,9.46
2018-11-02T07:32:45.251Z,9.57
2018-11-02T07:33:45.239Z,9.56
2018-11-02T07:34:45.160Z,9.50
2018-11-02T07:35:45.149Z,9.58
2018-11-02T07:36:45.101Z,9.63
2018-11-02T07:37:45.169Z,9.60
2018-11-02T07:38:45.055Z,9.52
2018-11-02T07:39:45.029Z,9.60
2018-11-02T07:40:45.091Z,9.58
2018-11-02T07:41:44.970Z,9.60
2018-11-02T07:42:45.001Z,9.52
2018-11-02T07:43:44.920Z,9.52
2018-11-02T07:44:44.888Z,9.49
2018-11-02T07:45:44.920Z,9.45
2018-11-02T07:46:44.845Z,9.56
2018-11-02T07:47:44.906Z,9.48
2018-11-02T07:48:44.791Z,9.53
2018-11-02T07:49:44.817Z,9.56
2018-11-02T07:50:44.765Z,9.58
2018-11-02T07:51:44.760Z,9.58
2018-11-02T07:52:44.680Z,9.58
2018-11-02T07:53:44.668Z,9.61
2018-11-02T07:54:44.629Z,9.49
2018-11-02T07:55:44.600Z,9.49
2018-11-02T07:56:44.613Z,9.50
2018-11-02T07:57:44.553Z,9.57
2018-11-02T07:58:44.615Z,9.52
2018-11-02T07:59:44.489Z,9.49
2018-11-02T08:00:44.459Z,9.53
2018-11-02T08:01:44.484Z,9.53
2018-11-02T08:02:44.531Z,9.52
2018-11-02T08:03:44.394Z,9.56
2018-11-02T08:04:44.440Z,9.56
2018-11-02T08:05:44.330Z,9.61
2018-11-02T08:06:44.360Z,9.53
2018-11-02T08:07:44.281Z,9.49
2018-11-02T08:08:44.359Z,9.60
2018-11-02T08:09:44.219Z,9.57
2018-11-02T08:10:44.280Z,9.58
2018-11-02T08:11:44.308Z,9.52
2018-11-02T08:12:44.193Z,9.60
2018-11-02T08:13:44.120Z,9.58
2018-11-02T08:14:44.199Z,9.64
2018-11-02T08:15:44.059Z,9.66
2018-11-02T08:16:44.041Z,9.68
2018-11-02T08:17:44.095Z,9.64
2018-11-02T08:18:44.025Z,9.75
2018-11-02T08:19:43.961Z,9.76
2018-11-02T08:20:44.100Z,9.73
2018-11-02T08:21:51.259Z,9.75
2018-11-02T08:23:36.848Z,9.75
2018-11-02T08:24:36.847Z,9.82
2018-11-02T08:26:29.699Z,9.88
2018-11-02T08:27:29.681Z,9.99
2018-11-02T08:29:22.548Z,9.97
2018-11-02T08:30:22.450Z,10.10
2018-11-02T08:32:15.546Z,10.00
2018-11-02T08:33:15.298Z,10.03
2018-11-02T08:35:08.363Z,9.99
2018-11-02T08:36:08.259Z,10.09
2018-11-02T08:38:01.152Z,9.99
2018-11-02T08:39:01.120Z,9.93
2018-11-02T08:40:55.089Z,9.89
2018-11-02T08:41:54.992Z,9.86
2018-11-02T08:43:48.052Z,9.88
2018-11-02T08:44:47.940Z,9.96
2018-11-02T08:46:41.146Z,9.88
2018-11-02T08:47:40.902Z,10.00
2018-11-02T08:49:33.963Z,9.99
2018-11-02T08:50:33.859Z,10.01
2018-11-02T08:52:27.066Z,10.10
2018-11-02T08:53:26.809Z,10.22
2018-11-02T08:54:26.779Z,10.34
2018-11-02T08:55:26.911Z,10.47
2018-11-02T08:56:26.733Z,10.52
2018-11-02T08:57:26.828Z,10.70
2018-11-02T08:58:26.915Z,11.11
2018-11-02T08:59:26.816Z,11.62
2018-11-02T09:00:26.635Z,12.44
2018-11-02T09:01:26.749Z,12.85
2018-11-02T09:02:26.581Z,13.41
2018-11-02T09:03:26.657Z,13.98
2018-11-02T09:04:26.538Z,14.50
2018-11-02T09:05:26.512Z,14.83
2018-11-02T09:06:26.580Z,14.90
2018-11-02T09:07:26.458Z,15.21
2018-11-02T09:08:26.594Z,15.79
2018-11-02T09:09:26.408Z,16.25
2018-11-02T09:10:26.395Z,16.56
2018-11-02T09:11:26.510Z,16.15
2018-11-02T09:12:26.351Z,15.46
2018-11-02T09:13:26.419Z,14.57
2018-11-02T09:14:26.300Z,14.14
2018-11-02T09:15:26.283Z,13.63
2018-11-02T09:16:26.267Z,13.40
2018-11-02T09:17:26.348Z,13.11
2018-11-02T09:18:26.252Z,12.97
2018-11-02T09:19:26.408Z,12.93
2018-11-02T09:20:26.175Z,12.79
2018-11-02T09:21:26.158Z,12.63
2018-11-02T09:22:26.318Z,12.77
2018-11-02T09:23:26.118Z,12.77
2018-11-02T09:24:26.188Z,13.62
2018-11-02T09:25:26.064Z,14.29
2018-11-02T09:26:26.043Z,14.88
2018-11-02T09:27:26.130Z,15.66
2018-11-02T09:28:25.998Z,16.12
2018-11-02T09:29:26.037Z,16.50
2018-11-02T09:30:25.959Z,16.55
2018-11-02T09:31:25.938Z,16.81
2018-11-02T09:32:25.925Z,17.06
2018-11-02T09:33:25.947Z,16.77
2018-11-02T09:34:25.895Z,16.89
2018-11-02T09:35:25.961Z,17.10
2018-11-02T09:36:25.851Z,17.74
2018-11-02T09:37:25.828Z,18.00
2018-11-02T09:38:25.878Z,17.99
2018-11-02T09:39:25.799Z,18.09
2018-11-02T09:40:26.011Z,18.39
2018-11-02T09:41:25.761Z,18.79
2018-11-02T09:42:25.781Z,18.74
2018-11-02T09:43:25.815Z,18.90
2018-11-02T09:44:25.718Z,18.55
2018-11-02T09:45:25.737Z,18.18
2018-11-02T09:46:25.697Z,17.84
2018-11-02T09:47:25.672Z,17.48
2018-11-02T09:48:25.658Z,17.67
2018-11-02T09:49:25.751Z,17.89
2018-11-02T09:50:25.629Z,17.57
2018-11-02T09:51:25.687Z,17.20
2018-11-02T09:52:25.599Z,16.86
2018-11-02T09:53:25.677Z,16.42
2018-11-02T09:54:25.562Z,16.11
2018-11-02T09:55:25.589Z,15.99
2018-11-02T09:56:25.528Z,15.93
2018-11-02T09:57:25.663Z,15.92
2018-11-02T09:58:25.499Z,16.35
2018-11-02T09:59:25.526Z,16.58
2018-11-02T10:00:25.476Z,16.78
2018-11-02T10:01:25.529Z,17.04
2018-11-02T10:02:25.440Z,17.06
2018-11-02T10:03:25.424Z,17.06
2018-11-02T10:04:25.407Z,17.08
2018-11-02T10:05:25.461Z,17.28
2018-11-02T10:06:25.376Z,17.07
2018-11-02T10:07:25.369Z,16.75
2018-11-02T10:08:25.367Z,16.38
2018-11-02T10:09:25.380Z,16.42
2018-11-02T10:10:25.364Z,16.48
2018-11-02T10:11:25.402Z,16.98
2018-11-02T10:12:25.269Z,17.48
2018-11-02T10:13:25.309Z,18.19
2018-11-02T10:14:25.318Z,18.65
2018-11-02T10:15:25.219Z,19.17
2018-11-02T10:16:25.229Z,19.84
2018-11-02T10:17:25.188Z,20.30
2018-11-02T10:18:25.238Z,20.61
2018-11-02T10:19:25.248Z,21.14
2018-11-02T10:20:25.151Z,21.51
2018-11-02T10:21:25.167Z,22.14
2018-11-02T10:22:25.120Z,22.50
2018-11-02T10:23:25.167Z,22.50
2018-11-02T10:24:25.089Z,21.78
2018-11-02T10:25:25.189Z,20.95
2018-11-02T10:26:25.063Z,21.05
2018-11-02T10:27:25.099Z,21.13
2018-11-02T10:28:25.048Z,21.51
2018-11-02T10:29:25.118Z,21.91
2018-11-02T10:30:25.015Z,21.90
2018-11-02T10:31:25.040Z,21.92
2018-11-02T10:32:24.988Z,21.48
2018-11-02T10:33:25.037Z,21.41
2018-11-02T10:34:24.972Z,21.95
2018-11-02T10:35:24.999Z,21.88
2018-11-02T10:36:24.948Z,21.72
2018-11-02T10:37:24.968Z,22.22
2018-11-02T10:38:24.921Z,22.34
2018-11-02T10:39:25.021Z,22.65
2018-11-02T10:40:24.908Z,23.01
2018-11-02T10:41:24.988Z,22.46
2018-11-02T10:42:24.881Z,21.64
2018-11-02T10:43:24.922Z,21.29
2018-11-02T10:44:24.935Z,21.72
2018-11-02T10:45:24.933Z,21.66
2018-11-02T10:46:24.848Z,21.16
2018-11-02T10:47:24.928Z,21.57
2018-11-02T10:48:24.808Z,21.16
2018-11-02T10:49:24.926Z,21.36
2018-11-02T10:50:24.789Z,21.78
2018-11-02T10:51:24.778Z,21.67
2018-11-02T10:52:24.777Z,20.30
2018-11-02T10:53:24.886Z,19.14
2018-11-02T10:54:24.783Z,18.25
2018-11-02T10:55:24.797Z,18.00
2018-11-02T10:56:24.733Z,18.33
2018-11-02T10:57:24.821Z,18.80
2018-11-02T10:58:24.697Z,18.80
2018-11-02T10:59:24.709Z,19.39
2018-11-02T11:00:24.683Z,19.38
2018-11-02T11:01:24.850Z,19.15
2018-11-02T11:02:24.652Z,18.73
2018-11-02T11:03:24.740Z,18.22
2018-11-02T11:04:24.628Z,17.66
2018-11-02T11:05:24.739Z,17.15
2018-11-02T11:06:24.608Z,16.75
2018-11-02T11:07:24.592Z,16.12
2018-11-02T11:08:24.579Z,15.72
2018-11-02T11:09:24.585Z,15.20
2018-11-02T11:10:24.553Z,14.83
2018-11-02T11:11:24.647Z,14.65
2018-11-02T11:12:24.685Z,14.68
2018-11-02T11:13:24.915Z,14.49
2018-11-02T11:14:24.485Z,14.37
2018-11-02T11:15:24.521Z,14.27
2018-11-02T11:16:24.453Z,14.27
2018-11-02T11:17:24.533Z,14.19
2018-11-02T11:18:24.418Z,14.09
2018-11-02T11:19:24.440Z,13.94
2018-11-02T11:20:24.380Z,13.88
2018-11-02T11:21:24.566Z,13.80
2018-11-02T11:22:24.350Z,13.62
2018-11-02T11:23:24.332Z,13.63
2018-11-02T11:24:24.310Z,13.56
2018-11-02T11:25:24.380Z,13.54
2018-11-02T11:26:24.270Z,13.37
2018-11-02T11:27:24.289Z,13.24
2018-11-02T11:28:24.229Z,13.69
2018-11-02T11:29:24.300Z,14.29
2018-11-02T11:30:24.211Z,14.93
2018-11-02T11:31:24.170Z,15.54
2018-11-02T11:32:24.242Z,15.99
2018-11-02T11:33:24.139Z,16.60
2018-11-02T11:34:24.110Z,17.08
2018-11-02T11:35:24.100Z,17.64
2018-11-02T11:36:24.159Z,18.04
2018-11-02T11:37:24.093Z,18.50
2018-11-02T11:38:24.062Z,18.73
2018-11-02T11:39:24.084Z,18.92
2018-11-02T11:40:24.079Z,18.76
2018-11-02T11:41:23.999Z,18.72
2018-11-02T11:42:23.998Z,18.61
2018-11-02T11:43:23.963Z,18.65
2018-11-02T11:44:24.019Z,18.74
2018-11-02T11:45:23.934Z,18.50
2018-11-02T11:46:24.031Z,18.68
2018-11-02T11:47:23.899Z,18.67
2018-11-02T11:48:23.951Z,18.52
2018-11-02T11:49:23.870Z,18.76
2018-11-02T11:50:23.860Z,18.92
2018-11-02T11:51:23.861Z,19.14
2018-11-02T11:52:24.893Z,19.58
2018-11-02T11:53:23.828Z,19.78
2018-11-02T11:54:23.897Z,20.02
2018-11-02T11:55:23.803Z,19.83
2018-11-02T11:56:23.888Z,19.54
2018-11-02T11:57:23.781Z,19.24
2018-11-02T11:58:23.810Z,18.98
2018-11-02T11:59:23.755Z,18.86
2018-11-02T12:00:23.742Z,18.74
2018-11-02T12:01:23.728Z,18.72
2018-11-02T12:02:23.885Z,18.55
2018-11-02T12:03:23.699Z,18.21
2018-11-02T12:04:23.795Z,18.27
2018-11-02T12:05:23.689Z,18.15
2018-11-02T12:06:23.739Z,17.78
2018-11-02T12:07:23.661Z,17.30
2018-11-02T12:08:23.670Z,16.71
2018-11-02T12:09:23.629Z,16.70
2018-11-02T12:10:23.760Z,16.85
2018-11-02T12:11:23.600Z,17.07
2018-11-02T12:12:23.689Z,16.88
2018-11-02T12:13:23.575Z,16.85
2018-11-02T12:14:23.611Z,16.93
2018-11-02T12:15:23.551Z,16.93
2018-11-02T12:16:23.540Z,16.83
2018-11-02T12:17:23.528Z,16.74
2018-11-02T12:18:23.542Z,16.80
2018-11-02T12:19:23.491Z,16.45
2018-11-02T12:20:23.548Z,16.01
2018-11-02T12:21:23.509Z,15.74
2018-11-02T12:22:23.561Z,15.52
2018-11-02T12:23:23.491Z,15.38
2018-11-02T12:24:23.473Z,15.36
2018-11-02T12:25:23.408Z,15.46
2018-11-02T12:26:23.489Z,15.74
2018-11-02T12:27:23.388Z,15.93
2018-11-02T12:28:23.407Z,15.89
2018-11-02T12:29:23.355Z,15.78
2018-11-02T12:30:23.412Z,15.52
2018-11-02T12:31:23.309Z,15.21
2018-11-02T12:32:23.299Z,14.88
2018-11-02T12:33:23.282Z,14.62
2018-11-02T12:34:23.340Z,14.62
2018-11-02T12:35:23.252Z,14.93
2018-11-02T12:36:23.250Z,15.11
2018-11-02T12:37:23.214Z,15.42
2018-11-02T12:38:23.259Z,15.82
2018-11-02T12:39:23.181Z,15.97
2018-11-02T12:40:23.286Z,16.15
2018-11-02T12:41:23.157Z,16.38
2018-11-02T12:42:23.189Z,16.59
2018-11-02T12:43:23.211Z,16.78
2018-11-02T12:44:23.203Z,16.88
2018-11-02T12:45:23.080Z,16.59
2018-11-02T12:46:23.118Z,16.48
2018-11-02T12:47:23.048Z,16.55
2018-11-02T12:48:23.123Z,16.85
2018-11-02T12:49:23.445Z,16.93
2018-11-02T12:50:23.242Z,16.83
2018-11-02T12:51:22.982Z,16.59
2018-11-02T12:52:23.050Z,16.44
2018-11-02T12:53:22.939Z,16.20
2018-11-02T12:54:22.927Z,15.89
2018-11-02T12:55:22.968Z,15.64
2018-11-02T12:56:22.889Z,15.28
2018-11-02T12:57:23.041Z,15.05
2018-11-02T12:58:22.852Z,14.67
2018-11-02T12:59:22.842Z,14.44
2018-11-02T13:00:22.906Z,14.52
2018-11-02T13:01:22.813Z,14.62
2018-11-02T13:02:22.822Z,14.52
2018-11-02T13:03:22.759Z,14.47
2018-11-02T13:04:22.749Z,14.12
2018-11-02T13:05:22.719Z,14.07
2018-11-02T13:06:22.739Z,13.88
2018-11-02T13:07:22.681Z,13.65
2018-11-02T13:08:22.768Z,13.58
2018-11-02T13:09:22.685Z,13.67